createdAt,value
2022-10-07T00:03:33.877Z,12.70
2022-10-07T00:06:04.099Z,12.20
2022-10-07T00:11:06.057Z,12.20
2022-10-07T00:13:34.209Z,12.20
2022-10-07T00:16:08.324Z,12.10
2022-10-07T00:18:37.258Z,12.40
2022-10-07T00:21:07.288Z,12.10
2022-10-07T00:23:35.936Z,12.20
2022-10-07T00:26:05.217Z,14.90
2022-10-07T00:28:33.837Z,12.20
2022-10-07T00:31:05.793Z,12.10
2022-10-07T00:33:38.478Z,12.00
2022-10-07T00:36:09.408Z,12.00
2022-10-07T00:41:05.861Z,12.00
2022-10-07T00:46:07.599Z,11.90
2022-10-07T00:48:37.560Z,11.90
2022-10-07T00:51:08.604Z,11.80
2022-10-07T00:53:40.740Z,11.80
2022-10-07T00:58:40.326Z,11.80
2022-10-07T01:03:37.549Z,11.80
2022-10-07T01:06:06.562Z,11.70
2022-10-07T01:11:25.444Z,11.60
2022-10-07T01:14:10.202Z,11.60
2022-10-07T01:16:59.537Z,11.70
2022-10-07T01:19:47.429Z,12.00
2022-10-07T01:22:45.974Z,12.00
2022-10-07T01:25:34.805Z,12.10
2022-10-07T01:28:09.721Z,11.70
2022-10-07T01:30:42.065Z,11.70
2022-10-07T01:33:21.380Z,12.10
2022-10-07T01:35:52.219Z,11.70
2022-10-07T01:38:22.600Z,11.70
2022-10-07T01:41:00.969Z,11.70
2022-10-07T01:50:54.430Z,11.60
2022-10-07T01:53:36.619Z,11.70
2022-10-07T01:56:30.167Z,11.90
2022-10-07T01:59:16.625Z,11.60
2022-10-07T02:02:05.019Z,11.50
2022-10-07T02:04:51.828Z,11.50
2022-10-07T02:07:43.023Z,11.50
2022-10-07T02:10:29.505Z,11.40
2022-10-07T02:13:20.532Z,11.40
2022-10-07T02:15:56.426Z,11.60
2022-10-07T02:20:54.796Z,10.40
2022-10-07T02:23:24.060Z,11.40
2022-10-07T02:25:54.437Z,11.40
2022-10-07T02:28:24.985Z,11.40
2022-10-07T02:30:56.861Z,11.40
2022-10-07T02:33:27.901Z,11.50
2022-10-07T02:35:59.853Z,11.30
2022-10-07T02:41:14.451Z,10.90
2022-10-07T02:44:00.305Z,11.30
2022-10-07T02:46:36.020Z,11.30
2022-10-07T02:49:07.998Z,11.30
2022-10-07T02:51:46.742Z,11.30
2022-10-07T02:54:18.094Z,11.10
2022-10-07T02:56:47.673Z,11.30
2022-10-07T02:59:17.503Z,11.20
2022-10-07T03:01:49.278Z,11.30
2022-10-07T03:09:14.417Z,11.80
2022-10-07T03:11:41.880Z,10.80
2022-10-07T03:21:34.569Z,11.20
2022-10-07T03:24:05.303Z,11.60
2022-10-07T03:26:33.561Z,11.10
2022-10-07T03:29:01.511Z,11.20
2022-10-07T03:31:29.506Z,11.20
2022-10-07T03:33:57.898Z,11.10
2022-10-07T03:58:39.998Z,11.10
2022-10-07T04:01:11.390Z,11.10
2022-10-07T04:08:35.012Z,11.40
2022-10-07T04:11:04.078Z,11.60
2022-10-07T04:23:23.531Z,11.00
2022-10-07T04:28:21.837Z,11.40
2022-10-07T04:33:22.032Z,11.60
2022-10-07T04:35:50.685Z,12.80
2022-10-07T04:38:19.300Z,13.40
2022-10-07T04:40:50.147Z,13.20
2022-10-07T04:43:20.778Z,14.10
2022-10-07T04:45:51.188Z,14.80
2022-10-07T04:48:19.738Z,14.30
2022-10-07T04:53:16.857Z,14.10
2022-10-07T04:55:46.885Z,14.30
2022-10-07T04:58:16.000Z,14.00
2022-10-07T05:00:46.667Z,13.40
2022-10-07T05:03:15.927Z,12.10
2022-10-07T05:05:45.832Z,11.90
2022-10-07T05:08:15.131Z,11.50
2022-10-07T05:10:43.586Z,11.80
2022-10-07T05:13:13.376Z,11.80
2022-10-07T05:15:50.934Z,11.90
2022-10-07T05:18:19.723Z,11.80
2022-10-07T05:20:48.576Z,12.50
2022-10-07T05:23:17.744Z,12.10
2022-10-07T05:28:15.650Z,11.90
2022-10-07T05:35:39.632Z,12.10
2022-10-07T05:40:37.776Z,11.50
2022-10-07T06:08:00.232Z,12.30
2022-10-07T06:13:11.449Z,12.40
2022-10-07T06:18:06.920Z,12.40
2022-10-07T06:27:59.089Z,12.40
2022-10-07T06:40:20.570Z,13.10
2022-10-07T06:42:48.130Z,12.00
2022-10-07T06:52:43.640Z,12.60
2022-10-07T07:00:15.616Z,13.30
2022-10-07T07:05:14.432Z,12.80
2022-10-07T07:10:10.327Z,13.60
2022-10-07T07:15:06.639Z,14.90
2022-10-07T07:32:23.537Z,12.90
2022-10-07T07:57:05.610Z,13.30
2022-10-07T08:02:02.794Z,12.70
2022-10-07T08:04:30.872Z,12.50
2022-10-07T08:06:58.299Z,12.90
2022-10-07T08:09:27.632Z,12.40
2022-10-07T08:14:30.350Z,12.60
2022-10-07T08:17:01.720Z,12.70
2022-10-07T08:19:32.441Z,12.50
2022-10-07T08:22:01.328Z,12.80
2022-10-07T08:24:32.367Z,12.70
2022-10-07T08:34:30.622Z,14.20
2022-10-07T08:37:01.845Z,13.80
2022-10-07T08:39:32.638Z,13.30
2022-10-07T08:42:13.771Z,13.20
2022-10-07T08:44:50.747Z,13.10
2022-10-07T08:47:40.727Z,13.20
2022-10-07T08:50:24.309Z,13.00
2022-10-07T08:53:04.380Z,13.10
2022-10-07T08:55:52.934Z,13.00
2022-10-07T08:58:41.158Z,13.70
2022-10-07T09:01:36.499Z,13.50
2022-10-07T09:04:31.287Z,13.30
2022-10-07T09:07:17.420Z,13.40
2022-10-07T09:10:04.217Z,14.90
2022-10-07T09:12:55.165Z,14.10
2022-10-07T09:15:48.676Z,14.90
2022-10-07T09:18:21.085Z,14.70
2022-10-07T09:20:54.359Z,14.00
2022-10-07T09:23:26.140Z,13.90
2022-10-07T09:28:29.836Z,13.90
2022-10-07T09:31:00.248Z,14.10
2022-10-07T09:33:30.114Z,14.40
2022-10-07T09:36:05.080Z,14.20
2022-10-07T09:38:36.413Z,13.80
2022-10-07T09:41:29.084Z,14.00
2022-10-07T09:44:04.403Z,14.40
2022-10-07T09:46:39.336Z,14.60
2022-10-07T09:49:28.010Z,14.00
2022-10-07T09:52:06.861Z,14.40
2022-10-07T09:54:36.810Z,14.20
2022-10-07T09:57:06.622Z,13.90
2022-10-07T09:59:37.418Z,14.10
2022-10-07T10:02:23.077Z,13.90
2022-10-07T10:04:54.638Z,13.70
2022-10-07T10:07:28.870Z,13.70
2022-10-07T10:10:03.905Z,13.80
2022-10-07T10:12:40.733Z,13.80
2022-10-07T10:15:29.091Z,13.80
2022-10-07T10:18:00.349Z,13.70
2022-10-07T10:20:44.780Z,14.00
2022-10-07T10:23:40.222Z,14.30
2022-10-07T10:26:29.562Z,16.00
2022-10-07T10:29:26.271Z,18.30
2022-10-07T10:32:21.564Z,14.80
2022-10-07T10:35:14.448Z,14.60
2022-10-07T10:38:11.294Z,16.00
2022-10-07T10:41:03.440Z,16.10
2022-10-07T10:43:52.347Z,16.40
2022-10-07T10:46:52.495Z,16.10
2022-10-07T10:49:35.056Z,15.80
2022-10-07T10:52:23.871Z,19.70
2022-10-07T10:55:19.194Z,19.10
2022-10-07T10:58:11.655Z,18.40
2022-10-07T11:01:14.767Z,17.10
2022-10-07T11:04:05.787Z,16.10
2022-10-07T11:06:39.184Z,15.10
2022-10-07T11:09:14.936Z,16.50
2022-10-07T11:11:45.245Z,16.50
2022-10-07T11:14:20.754Z,14.70
2022-10-07T11:16:55.899Z,15.30
2022-10-07T11:19:33.064Z,15.10
2022-10-07T11:22:03.357Z,17.20
2022-10-07T11:24:41.557Z,17.00
2022-10-07T11:27:26.780Z,14.70
2022-10-07T11:30:18.361Z,14.90
2022-10-07T11:33:05.797Z,15.10
2022-10-07T11:35:44.362Z,17.20
2022-10-07T11:38:21.228Z,18.30
2022-10-07T11:40:54.931Z,15.70
2022-10-07T11:43:34.607Z,15.20
2022-10-07T11:46:11.625Z,14.90
2022-10-07T11:48:46.247Z,14.80
2022-10-07T11:51:37.086Z,14.40
2022-10-07T11:54:09.135Z,14.30
2022-10-07T11:56:45.277Z,14.40
2022-10-07T11:59:34.623Z,14.30
2022-10-07T12:02:02.795Z,14.60
2022-10-07T12:04:38.426Z,14.50
2022-10-07T12:07:37.267Z,14.30
2022-10-07T12:10:25.603Z,14.60
2022-10-07T12:12:56.991Z,14.60
2022-10-07T12:18:25.656Z,15.40
2022-10-07T12:21:04.161Z,14.90
2022-10-07T12:23:40.440Z,14.50
2022-10-07T12:26:38.901Z,15.20
2022-10-07T12:29:24.050Z,14.90
2022-10-07T12:34:39.834Z,16.30
2022-10-07T12:37:43.366Z,16.00
2022-10-07T12:40:19.206Z,16.10
2022-10-07T12:42:54.935Z,15.90
2022-10-07T12:45:25.327Z,15.00
2022-10-07T12:47:58.226Z,14.60
2022-10-07T12:50:27.169Z,14.70
2022-10-07T12:52:59.080Z,14.20
2022-10-07T12:55:45.358Z,14.20
2022-10-07T12:59:04.901Z,14.20
2022-10-07T13:02:09.157Z,14.10
2022-10-07T13:05:07.233Z,13.90
2022-10-07T13:08:02.445Z,14.00
2022-10-07T13:18:45.329Z,13.90
2022-10-07T13:21:31.228Z,13.60
2022-10-07T13:26:27.795Z,13.80
2022-10-07T13:31:29.004Z,13.80
2022-10-07T13:33:59.213Z,13.80
2022-10-07T13:39:20.980Z,13.90
2022-10-07T13:46:56.647Z,13.70
2022-10-07T14:01:55.261Z,13.70
2022-10-07T14:04:33.921Z,13.60
2022-10-07T14:07:21.622Z,13.60
2022-10-07T14:10:05.261Z,13.70
2022-10-07T14:17:47.829Z,13.50
2022-10-07T14:38:40.577Z,13.10
2022-10-07T15:31:25.223Z,12.70
2022-10-07T15:38:55.361Z,12.40
2022-10-07T15:41:43.177Z,12.40
2022-10-07T15:44:16.791Z,12.40
2022-10-07T15:46:47.705Z,12.30
2022-10-07T15:49:17.379Z,12.40
2022-10-07T15:51:47.313Z,12.40
2022-10-07T15:54:15.690Z,12.40
2022-10-07T15:56:44.020Z,12.30
2022-10-07T16:01:40.733Z,12.30
2022-10-07T16:04:13.775Z,12.40
2022-10-07T16:06:52.286Z,12.30
2022-10-07T16:09:26.304Z,12.30
2022-10-07T16:11:59.228Z,12.90
2022-10-07T16:19:30.962Z,12.20
2022-10-07T16:21:59.311Z,11.90
2022-10-07T16:24:32.552Z,12.20
2022-10-07T16:27:04.053Z,12.70
2022-10-07T16:29:47.889Z,12.50
2022-10-07T16:32:16.731Z,12.20
2022-10-07T17:07:01.333Z,11.40
2022-10-07T17:14:27.613Z,11.70
2022-10-07T17:16:58.094Z,11.60
2022-10-07T17:19:28.925Z,11.70
2022-10-07T17:22:02.348Z,11.10
2022-10-07T17:24:31.576Z,11.50
2022-10-07T17:27:01.780Z,11.50
2022-10-07T17:39:27.964Z,11.50
2022-10-07T17:59:22.887Z,11.30
2022-10-07T18:59:35.160Z,11.00
2022-10-07T19:09:29.638Z,11.00
2022-10-07T19:11:59.156Z,10.80
2022-10-07T19:14:28.463Z,10.90
2022-10-07T19:19:25.851Z,10.70
2022-10-07T19:21:56.273Z,10.80
2022-10-07T19:24:44.261Z,10.80
2022-10-07T19:32:10.945Z,11.00
2022-10-07T19:34:39.303Z,10.70
2022-10-07T20:14:25.434Z,10.40
2022-10-07T20:16:56.629Z,10.60
2022-10-07T21:17:06.175Z,10.30
2022-10-07T22:54:13.412Z,9.80
2022-10-07T23:29:04.511Z,9.80
2022-10-07T23:36:31.139Z,9.80
